createdAt,value
2017-11-16T00:00:39.765Z,8.20
2017-11-16T00:03:07.840Z,8.20
2017-11-16T00:05:36.702Z,8.20
2017-11-16T00:08:04.776Z,8.20
2017-11-16T00:10:32.873Z,8.20
2017-11-16T00:13:00.948Z,8.20
2017-11-16T00:15:29.040Z,8.30
2017-11-16T00:17:57.157Z,8.20
2017-11-16T00:20:25.257Z,8.20
2017-11-16T00:22:53.340Z,8.20
2017-11-16T00:25:22.213Z,8.30
2017-11-16T00:27:50.297Z,8.20
2017-11-16T00:30:18.472Z,8.20
2017-11-16T00:32:47.369Z,8.20
2017-11-16T00:35:16.276Z,8.30
2017-11-16T00:37:44.376Z,8.30
2017-11-16T00:40:12.579Z,8.30
2017-11-16T00:42:40.660Z,8.20
2017-11-16T00:45:08.767Z,8.20
2017-11-16T00:47:36.892Z,8.30
2017-11-16T00:50:05.003Z,8.20
2017-11-16T00:52:34.581Z,8.10
2017-11-16T00:55:02.985Z,8.20
2017-11-16T00:57:31.844Z,8.20
2017-11-16T01:00:00.020Z,8.20
2017-11-16T01:02:28.115Z,8.20
2017-11-16T01:04:56.993Z,8.20
2017-11-16T01:07:25.089Z,8.20
2017-11-16T01:09:53.157Z,8.20
2017-11-16T01:12:21.999Z,8.20
2017-11-16T01:14:50.116Z,8.20
2017-11-16T01:17:18.192Z,8.20
2017-11-16T01:19:46.423Z,8.20
2017-11-16T01:22:14.492Z,8.30
2017-11-16T01:24:42.593Z,8.10
2017-11-16T01:27:10.912Z,8.20
2017-11-16T01:29:39.013Z,8.20
2017-11-16T01:32:07.195Z,8.20
2017-11-16T01:34:35.363Z,8.20
2017-11-16T01:37:03.574Z,8.20
2017-11-16T01:39:32.642Z,8.20
2017-11-16T01:42:00.780Z,8.20
2017-11-16T01:44:29.688Z,8.20
2017-11-16T01:46:58.153Z,8.20
2017-11-16T01:49:26.232Z,8.20
2017-11-16T01:51:55.088Z,8.20
2017-11-16T01:54:24.400Z,8.20
2017-11-16T01:56:52.576Z,8.20
2017-11-16T01:59:21.777Z,8.20
2017-11-16T02:01:49.988Z,8.20
2017-11-16T02:04:18.173Z,8.20
2017-11-16T02:06:46.412Z,8.20
2017-11-16T02:09:14.583Z,8.20
2017-11-16T02:11:42.703Z,8.10
2017-11-16T02:14:10.774Z,8.20
2017-11-16T02:16:40.516Z,8.10
2017-11-16T02:19:09.609Z,8.10
2017-11-16T02:21:37.681Z,8.10
2017-11-16T02:24:06.544Z,8.10
2017-11-16T02:26:34.945Z,8.10
2017-11-16T02:29:03.784Z,8.00
2017-11-16T02:31:32.012Z,8.10
2017-11-16T02:34:00.869Z,8.10
2017-11-16T02:36:28.946Z,8.10
2017-11-16T02:38:57.040Z,8.10
2017-11-16T02:41:25.157Z,8.00
2017-11-16T02:43:54.353Z,8.10
2017-11-16T02:46:22.429Z,8.00
2017-11-16T02:48:51.834Z,8.00
2017-11-16T02:51:20.052Z,8.00
2017-11-16T02:53:49.217Z,8.00
2017-11-16T02:56:17.305Z,8.00
2017-11-16T02:58:45.524Z,8.00
2017-11-16T03:01:14.413Z,8.00
2017-11-16T03:03:43.319Z,7.90
2017-11-16T03:06:11.415Z,8.00
2017-11-16T03:08:39.503Z,8.00
2017-11-16T03:11:07.623Z,8.00
2017-11-16T03:13:36.455Z,7.90
2017-11-16T03:16:04.557Z,7.90
2017-11-16T03:18:32.648Z,7.90
2017-11-16T03:21:01.774Z,8.00
2017-11-16T03:23:30.343Z,7.90
2017-11-16T03:25:58.420Z,7.90
2017-11-16T03:28:26.613Z,7.90
2017-11-16T03:30:54.690Z,7.80
2017-11-16T03:33:23.548Z,7.90
2017-11-16T03:35:51.728Z,7.90
2017-11-16T03:38:19.798Z,7.90
2017-11-16T03:40:47.994Z,7.80
2017-11-16T03:43:16.237Z,7.80
2017-11-16T03:45:45.145Z,7.90
2017-11-16T03:48:13.286Z,7.80
2017-11-16T03:50:41.590Z,7.80
2017-11-16T03:53:10.359Z,7.90
2017-11-16T03:55:39.385Z,7.80
2017-11-16T03:58:07.969Z,7.80
2017-11-16T04:00:36.101Z,7.80
2017-11-16T04:03:04.177Z,7.80
2017-11-16T04:05:32.745Z,7.90
2017-11-16T04:08:01.660Z,7.80
2017-11-16T04:10:30.638Z,7.80
2017-11-16T04:12:59.477Z,7.80
2017-11-16T04:15:27.570Z,7.80
2017-11-16T04:17:55.680Z,7.70
2017-11-16T04:20:23.800Z,7.70
2017-11-16T04:22:51.917Z,7.70
2017-11-16T04:25:20.031Z,7.70
2017-11-16T04:27:48.109Z,7.70
2017-11-16T04:30:16.215Z,7.70
2017-11-16T04:32:44.315Z,7.70
2017-11-16T04:35:12.416Z,7.70
2017-11-16T04:37:42.094Z,7.70
2017-11-16T04:40:10.169Z,7.70
2017-11-16T04:42:39.029Z,7.70
2017-11-16T04:45:07.100Z,7.70
2017-11-16T04:47:35.229Z,7.70
2017-11-16T04:50:03.534Z,7.70
2017-11-16T04:52:32.254Z,7.70
2017-11-16T04:55:02.841Z,7.60
2017-11-16T04:57:30.941Z,7.60
2017-11-16T04:59:59.017Z,7.60
2017-11-16T05:02:27.151Z,7.60
2017-11-16T05:04:55.904Z,7.60
2017-11-16T05:07:24.758Z,7.60
2017-11-16T05:09:52.862Z,7.60
2017-11-16T05:12:20.942Z,7.60
2017-11-16T05:14:49.017Z,7.50
2017-11-16T05:17:17.880Z,7.60
2017-11-16T05:19:45.955Z,7.50
2017-11-16T05:22:14.824Z,7.50
2017-11-16T05:24:42.943Z,7.50
2017-11-16T05:27:11.021Z,7.40
2017-11-16T05:29:39.939Z,7.40
2017-11-16T05:32:08.033Z,7.40
2017-11-16T05:34:36.125Z,7.40
2017-11-16T05:37:04.200Z,7.30
2017-11-16T05:39:32.333Z,7.40
2017-11-16T05:42:00.410Z,7.30
2017-11-16T05:44:28.516Z,7.30
2017-11-16T05:46:56.917Z,7.30
2017-11-16T05:49:25.769Z,7.30
2017-11-16T05:51:53.875Z,7.30
2017-11-16T05:54:22.750Z,7.30
2017-11-16T05:56:51.669Z,7.30
2017-11-16T05:59:20.852Z,7.30
2017-11-16T06:01:48.982Z,7.30
2017-11-16T06:04:17.061Z,7.30
2017-11-16T06:06:45.696Z,7.30
2017-11-16T06:09:14.568Z,7.30
2017-11-16T06:11:42.649Z,7.20
2017-11-16T06:14:11.517Z,7.20
2017-11-16T06:16:39.597Z,7.20
2017-11-16T06:19:07.688Z,7.20
2017-11-16T06:21:36.572Z,7.20
2017-11-16T06:24:05.472Z,7.20
2017-11-16T06:26:34.308Z,7.10
2017-11-16T06:29:02.430Z,7.10
2017-11-16T06:31:30.560Z,7.00
2017-11-16T06:33:58.636Z,7.10
2017-11-16T06:36:26.737Z,7.00
2017-11-16T06:38:54.816Z,7.00
2017-11-16T06:41:23.685Z,7.00
2017-11-16T06:43:51.812Z,7.00
2017-11-16T06:46:19.891Z,6.90
2017-11-16T06:48:48.182Z,6.90
2017-11-16T06:51:16.265Z,7.00
2017-11-16T06:53:44.379Z,6.80
2017-11-16T06:56:12.492Z,6.90
2017-11-16T06:58:40.569Z,6.80
2017-11-16T07:01:08.673Z,6.90
2017-11-16T07:03:37.540Z,6.90
2017-11-16T07:06:05.624Z,6.80
2017-11-16T07:08:33.747Z,6.90
2017-11-16T07:11:01.840Z,6.90
2017-11-16T07:13:30.284Z,6.90
2017-11-16T07:15:59.173Z,6.90
2017-11-16T07:18:28.020Z,6.90
2017-11-16T07:20:56.152Z,6.90
2017-11-16T07:23:24.250Z,6.80
2017-11-16T07:25:52.442Z,6.90
2017-11-16T07:28:20.548Z,6.80
2017-11-16T07:30:49.464Z,6.90
2017-11-16T07:33:17.549Z,6.90
2017-11-16T07:35:45.661Z,6.90
2017-11-16T07:38:13.745Z,6.90
2017-11-16T07:40:46.452Z,6.90
2017-11-16T07:43:15.318Z,6.90
2017-11-16T07:45:43.425Z,6.90
2017-11-16T07:48:11.540Z,6.90
2017-11-16T07:50:39.629Z,6.80
2017-11-16T07:53:07.712Z,6.90
2017-11-16T07:55:35.797Z,6.90
2017-11-16T07:58:03.916Z,6.90
2017-11-16T08:00:32.382Z,6.90
2017-11-16T08:03:00.489Z,6.90
2017-11-16T08:05:28.596Z,6.90
2017-11-16T08:07:57.432Z,7.00
2017-11-16T08:10:25.549Z,6.90
2017-11-16T08:12:54.445Z,6.90
2017-11-16T08:15:23.331Z,6.90
2017-11-16T08:17:51.421Z,7.00
2017-11-16T08:20:19.516Z,7.00
2017-11-16T08:22:47.635Z,6.90
2017-11-16T08:25:15.716Z,6.90
2017-11-16T08:27:43.832Z,6.90
2017-11-16T08:30:11.930Z,6.90
2017-11-16T08:32:40.145Z,6.80
2017-11-16T08:35:08.221Z,6.80
2017-11-16T08:37:37.066Z,6.80
2017-11-16T08:40:05.181Z,6.80
2017-11-16T08:42:34.024Z,6.80
2017-11-16T08:45:02.267Z,6.80
2017-11-16T08:47:30.369Z,6.70
2017-11-16T08:49:58.480Z,6.70
2017-11-16T08:52:26.552Z,6.70
2017-11-16T08:54:54.664Z,6.70
2017-11-16T08:57:22.793Z,6.70
2017-11-16T08:59:50.884Z,6.70
2017-11-16T09:02:18.994Z,6.70
2017-11-16T09:04:47.116Z,6.60
2017-11-16T09:07:15.263Z,6.70
2017-11-16T09:09:43.669Z,6.70
2017-11-16T09:12:12.009Z,6.80
2017-11-16T09:14:40.085Z,6.80
2017-11-16T09:17:08.294Z,6.90
2017-11-16T09:19:36.391Z,6.80
2017-11-16T09:22:04.473Z,6.80
2017-11-16T09:24:32.594Z,6.90
2017-11-16T09:27:00.703Z,6.90
2017-11-16T09:29:28.776Z,7.00
2017-11-16T09:31:56.912Z,7.00
2017-11-16T09:34:25.835Z,7.10
2017-11-16T09:36:54.734Z,7.00
2017-11-16T09:39:22.848Z,7.00
2017-11-16T09:41:50.940Z,7.10
2017-11-16T09:44:19.034Z,7.10
2017-11-16T09:46:47.911Z,7.20
2017-11-16T09:49:16.005Z,7.20
2017-11-16T09:51:44.156Z,7.20
2017-11-16T09:54:12.254Z,7.20
2017-11-16T09:56:41.138Z,7.20
2017-11-16T09:59:10.117Z,7.30
2017-11-16T10:01:38.199Z,7.30
2017-11-16T10:04:06.502Z,7.30
2017-11-16T10:06:34.621Z,7.30
2017-11-16T10:09:02.848Z,7.40
2017-11-16T10:11:32.060Z,7.50
2017-11-16T10:14:00.277Z,7.60
2017-11-16T10:16:29.176Z,7.60
2017-11-16T10:18:57.244Z,7.70
2017-11-16T10:21:25.337Z,7.70
2017-11-16T10:23:53.492Z,7.70
2017-11-16T10:26:21.590Z,7.70
2017-11-16T10:28:50.462Z,7.70
2017-11-16T10:31:19.326Z,7.80
2017-11-16T10:33:47.453Z,7.80
2017-11-16T10:36:15.631Z,7.90
2017-11-16T10:38:43.795Z,7.90
2017-11-16T10:41:11.920Z,7.90
2017-11-16T10:43:40.214Z,8.00
2017-11-16T10:46:08.317Z,8.00
2017-11-16T10:48:36.407Z,7.90
2017-11-16T10:51:04.526Z,7.80
2017-11-16T10:53:32.675Z,7.90
2017-11-16T10:56:00.784Z,7.80
2017-11-16T10:58:28.892Z,7.80
2017-11-16T11:00:57.022Z,7.90
2017-11-16T11:03:25.114Z,7.90
2017-11-16T11:05:53.205Z,7.90
2017-11-16T11:08:21.297Z,7.90
2017-11-16T11:10:49.380Z,7.90
2017-11-16T11:13:18.272Z,7.90
2017-11-16T11:15:46.404Z,7.80
2017-11-16T11:18:14.528Z,7.90
2017-11-16T11:20:42.681Z,8.00
2017-11-16T11:23:10.759Z,7.90
2017-11-16T11:25:38.908Z,7.80
2017-11-16T11:28:06.981Z,7.90
2017-11-16T11:30:35.077Z,7.80
2017-11-16T11:33:03.180Z,7.90
2017-11-16T11:35:31.291Z,7.90
2017-11-16T11:38:00.138Z,7.90
2017-11-16T11:40:29.094Z,8.00
2017-11-16T11:42:57.977Z,8.00
2017-11-16T11:45:26.338Z,8.10
2017-11-16T11:47:54.495Z,8.10
2017-11-16T11:50:23.356Z,8.10
2017-11-16T11:52:51.463Z,8.30
2017-11-16T11:55:20.356Z,8.30
2017-11-16T11:57:49.230Z,8.30
2017-11-16T12:00:17.363Z,8.20
2017-11-16T12:02:45.533Z,8.20
2017-11-16T12:05:13.645Z,8.30
2017-11-16T12:07:42.399Z,8.30
2017-11-16T12:10:10.526Z,8.40
2017-11-16T12:12:39.429Z,8.40
2017-11-16T12:15:07.537Z,8.40
2017-11-16T12:17:35.800Z,8.40
2017-11-16T12:20:03.913Z,8.40
2017-11-16T12:22:32.010Z,8.50
2017-11-16T12:25:00.859Z,8.60
2017-11-16T12:27:28.951Z,8.50
2017-11-16T12:29:57.043Z,8.50
2017-11-16T12:32:25.141Z,8.40
2017-11-16T12:34:53.237Z,8.40
2017-11-16T12:37:21.341Z,8.40
2017-11-16T12:39:49.422Z,8.40
2017-11-16T12:42:18.283Z,8.30
2017-11-16T12:44:46.373Z,8.40
2017-11-16T12:47:15.018Z,8.40
2017-11-16T12:49:43.097Z,8.40
2017-11-16T12:52:12.136Z,8.40
2017-11-16T12:54:40.266Z,8.30
2017-11-16T12:57:08.361Z,8.40
2017-11-16T12:59:36.456Z,8.50
2017-11-16T13:02:04.533Z,8.50
2017-11-16T13:04:33.401Z,8.50
2017-11-16T13:07:01.521Z,8.50
2017-11-16T13:09:29.689Z,8.50
2017-11-16T13:11:57.812Z,8.40
2017-11-16T13:14:25.965Z,8.40
2017-11-16T13:16:54.057Z,8.40
2017-11-16T13:19:22.142Z,8.50
2017-11-16T13:21:50.362Z,8.40
2017-11-16T13:24:18.908Z,8.50
2017-11-16T13:26:46.997Z,8.40
2017-11-16T13:29:15.151Z,8.50
2017-11-16T13:31:43.228Z,8.50
2017-11-16T13:34:11.335Z,8.50
2017-11-16T13:36:39.410Z,8.50
2017-11-16T13:39:07.548Z,8.50
2017-11-16T13:41:35.636Z,8.50
2017-11-16T13:44:04.521Z,8.50
2017-11-16T13:46:32.688Z,8.50
2017-11-16T13:49:00.757Z,8.40
2017-11-16T13:51:29.581Z,8.40
2017-11-16T13:53:57.708Z,8.40
2017-11-16T13:56:25.846Z,8.40
2017-11-16T13:58:53.924Z,8.50
2017-11-16T14:01:22.024Z,8.50
2017-11-16T14:03:51.213Z,8.40
2017-11-16T14:06:19.299Z,8.50
2017-11-16T14:08:48.097Z,8.40
2017-11-16T14:11:16.175Z,8.50
2017-11-16T14:13:44.300Z,8.50
2017-11-16T14:16:12.369Z,8.50
2017-11-16T14:18:40.441Z,8.40
2017-11-16T14:21:08.573Z,8.40
2017-11-16T14:23:37.440Z,8.40
2017-11-16T14:26:05.537Z,8.40
2017-11-16T14:28:34.390Z,8.40
2017-11-16T14:31:02.462Z,8.40
2017-11-16T14:33:30.561Z,8.30
2017-11-16T14:35:58.633Z,8.40
2017-11-16T14:38:26.768Z,8.40
2017-11-16T14:40:54.961Z,8.30
2017-11-16T14:43:23.064Z,8.30
2017-11-16T14:45:51.921Z,8.40
2017-11-16T14:48:20.013Z,8.40
2017-11-16T14:50:48.106Z,8.40
2017-11-16T14:53:16.209Z,8.30
2017-11-16T14:55:44.305Z,8.40
2017-11-16T14:58:12.406Z,8.40
2017-11-16T15:00:40.524Z,8.40
2017-11-16T15:03:08.626Z,8.30
2017-11-16T15:05:36.706Z,8.40
2017-11-16T15:08:04.805Z,8.30
2017-11-16T15:10:32.914Z,8.30
2017-11-16T15:13:01.040Z,8.20
2017-11-16T15:15:29.918Z,8.30
2017-11-16T15:17:58.005Z,8.20
2017-11-16T15:20:26.849Z,8.20
2017-11-16T15:22:54.937Z,8.20
2017-11-16T15:25:23.006Z,8.20
2017-11-16T15:27:51.102Z,8.20
2017-11-16T15:30:19.226Z,8.20
2017-11-16T15:32:48.509Z,8.20
2017-11-16T15:35:16.601Z,8.10
2017-11-16T15:37:44.707Z,8.10
2017-11-16T15:40:12.815Z,8.20
2017-11-16T15:42:41.677Z,8.20
2017-11-16T15:45:09.779Z,8.20
2017-11-16T15:47:37.889Z,8.20
2017-11-16T15:50:06.010Z,8.20
2017-11-16T15:52:34.097Z,8.20
2017-11-16T15:55:02.226Z,8.20
2017-11-16T15:57:30.469Z,8.20
2017-11-16T15:59:58.786Z,8.20
2017-11-16T16:02:27.166Z,8.20
2017-11-16T16:04:55.268Z,8.20
2017-11-16T16:07:23.394Z,8.20
2017-11-16T16:09:51.570Z,8.10
2017-11-16T16:12:19.680Z,8.20
2017-11-16T16:14:48.528Z,8.20
2017-11-16T16:17:16.645Z,8.20
2017-11-16T16:19:45.522Z,8.20
2017-11-16T16:22:14.107Z,8.20
2017-11-16T16:24:42.208Z,8.20
2017-11-16T16:27:10.357Z,8.20
2017-11-16T16:29:38.717Z,8.20
2017-11-16T16:32:06.813Z,8.20
2017-11-16T16:34:35.657Z,8.20
2017-11-16T16:37:03.761Z,8.20
2017-11-16T16:39:31.849Z,8.10
2017-11-16T16:41:59.949Z,8.10
2017-11-16T16:44:28.148Z,8.20
2017-11-16T16:46:57.025Z,8.10
2017-11-16T16:49:25.140Z,8.10
2017-11-16T16:51:53.244Z,8.10
2017-11-16T16:54:21.356Z,8.10
2017-11-16T16:56:49.453Z,8.10
2017-11-16T16:59:17.550Z,8.10
2017-11-16T17:01:46.422Z,8.00
2017-11-16T17:04:14.949Z,8.00
2017-11-16T17:06:44.035Z,8.00
2017-11-16T17:09:12.133Z,8.10
2017-11-16T17:11:40.232Z,8.10
2017-11-16T17:14:08.331Z,8.10
2017-11-16T17:16:37.186Z,8.10
2017-11-16T17:19:05.289Z,8.00
2017-11-16T17:21:34.152Z,8.10
2017-11-16T17:24:02.305Z,8.10
2017-11-16T17:26:30.441Z,8.10
2017-11-16T17:28:59.284Z,8.10
2017-11-16T17:31:27.396Z,8.10
2017-11-16T17:33:56.274Z,8.10
2017-11-16T17:36:24.409Z,8.10
2017-11-16T17:38:52.509Z,8.10
2017-11-16T17:41:20.601Z,8.10
2017-11-16T17:43:49.493Z,8.00
2017-11-16T17:46:17.586Z,8.10
2017-11-16T17:48:45.656Z,8.10
2017-11-16T17:51:13.760Z,8.00
2017-11-16T17:53:41.830Z,8.00
2017-11-16T17:56:09.933Z,8.00
2017-11-16T17:58:38.016Z,8.00
2017-11-16T18:01:06.504Z,7.90
2017-11-16T18:03:34.607Z,7.90
2017-11-16T18:06:02.981Z,7.90
2017-11-16T18:08:31.060Z,7.90
2017-11-16T18:10:59.764Z,7.90
2017-11-16T18:13:28.230Z,8.00
2017-11-16T18:15:56.359Z,8.00
2017-11-16T18:18:24.453Z,7.90
2017-11-16T18:20:53.485Z,8.00
2017-11-16T18:23:21.578Z,7.90
2017-11-16T18:25:50.285Z,7.90
2017-11-16T18:28:18.463Z,7.90
2017-11-16T18:30:47.016Z,7.90
2017-11-16T18:33:15.157Z,8.00
2017-11-16T18:35:43.282Z,8.00
2017-11-16T18:38:12.329Z,7.90
2017-11-16T18:40:41.034Z,7.90
2017-11-16T18:43:09.300Z,7.90
2017-11-16T18:45:38.182Z,7.90
2017-11-16T18:48:06.464Z,7.90
2017-11-16T18:50:34.532Z,7.90
2017-11-16T18:53:03.476Z,7.90
2017-11-16T18:55:31.655Z,7.90
2017-11-16T18:57:59.861Z,7.80
2017-11-16T19:00:27.972Z,7.90
2017-11-16T19:02:56.178Z,7.90
2017-11-16T19:05:25.083Z,7.90
2017-11-16T19:07:53.970Z,7.90
2017-11-16T19:10:22.871Z,7.90
2017-11-16T19:12:51.749Z,8.00
2017-11-16T19:15:20.709Z,8.00
2017-11-16T19:17:48.918Z,7.90
2017-11-16T19:20:17.087Z,7.90
2017-11-16T19:22:45.980Z,7.90
2017-11-16T19:25:14.856Z,7.90
2017-11-16T19:27:42.957Z,8.00
2017-11-16T19:30:11.064Z,8.00
2017-11-16T19:32:39.168Z,8.00
2017-11-16T19:35:07.369Z,8.00
2017-11-16T19:37:36.261Z,8.00
2017-11-16T19:40:04.424Z,8.00
2017-11-16T19:42:32.613Z,7.90
2017-11-16T19:45:01.497Z,7.90
2017-11-16T19:47:31.319Z,7.90
2017-11-16T19:49:59.466Z,7.90
2017-11-16T19:52:28.359Z,7.80
2017-11-16T19:54:56.505Z,7.80
2017-11-16T19:57:24.713Z,7.80
2017-11-16T19:59:53.596Z,7.80
2017-11-16T20:02:21.802Z,7.80
2017-11-16T20:04:49.959Z,7.70
2017-11-16T20:07:18.168Z,7.70
2017-11-16T20:09:46.273Z,7.70
2017-11-16T20:12:14.492Z,7.70
2017-11-16T20:14:42.581Z,7.70
2017-11-16T20:17:10.703Z,7.80
2017-11-16T20:19:38.790Z,7.60
2017-11-16T20:22:07.707Z,7.60
2017-11-16T20:24:35.977Z,7.60
2017-11-16T20:27:04.138Z,7.70
2017-11-16T20:29:32.366Z,7.70
2017-11-16T20:32:00.487Z,7.70
2017-11-16T20:34:28.685Z,7.70
2017-11-16T20:37:02.318Z,7.70
2017-11-16T20:39:45.552Z,7.60
2017-11-16T20:42:15.663Z,7.70
2017-11-16T20:44:49.420Z,7.70
2017-11-16T20:50:24.172Z,7.70
2017-11-16T20:52:56.132Z,7.70
2017-11-16T20:55:25.141Z,7.80
2017-11-16T20:57:53.381Z,7.70
2017-11-16T21:00:21.637Z,7.70
2017-11-16T21:02:49.732Z,7.70
2017-11-16T21:05:17.858Z,7.70
2017-11-16T21:07:45.973Z,7.70
2017-11-16T21:10:14.185Z,7.70
2017-11-16T21:12:42.345Z,7.80
2017-11-16T21:15:11.209Z,7.70
2017-11-16T21:17:40.310Z,7.70
2017-11-16T21:20:08.524Z,7.70
2017-11-16T21:22:36.613Z,7.70
2017-11-16T21:25:04.737Z,7.70
2017-11-16T21:27:32.843Z,7.60
2017-11-16T21:30:00.929Z,7.70
2017-11-16T21:32:29.013Z,7.70
2017-11-16T21:34:57.815Z,7.70
2017-11-16T21:37:25.929Z,7.70
2017-11-16T21:39:54.813Z,7.70
2017-11-16T21:42:23.704Z,7.80
2017-11-16T21:44:51.873Z,7.70
2017-11-16T21:47:20.720Z,7.70
2017-11-16T21:49:48.893Z,7.70
2017-11-16T21:52:17.304Z,7.80
2017-11-16T21:54:45.393Z,7.70
2017-11-16T21:57:14.246Z,7.70
2017-11-16T21:59:43.344Z,7.80
2017-11-16T22:02:11.430Z,7.70
2017-11-16T22:04:39.505Z,7.70
2017-11-16T22:07:07.616Z,7.70
2017-11-16T22:09:35.737Z,7.70
2017-11-16T22:12:03.821Z,7.70
2017-11-16T22:14:31.950Z,7.70
2017-11-16T22:17:00.025Z,7.70
2017-11-16T22:19:28.516Z,7.70
2017-11-16T22:21:56.601Z,7.80
2017-11-16T22:24:24.674Z,7.80
2017-11-16T22:26:52.932Z,7.70
2017-11-16T22:29:21.013Z,7.70
2017-11-16T22:31:49.277Z,7.80
2017-11-16T22:34:18.546Z,7.80
2017-11-16T22:36:46.622Z,7.80
2017-11-16T22:39:14.690Z,7.80
2017-11-16T22:41:43.598Z,7.80
2017-11-16T22:44:11.689Z,7.80
2017-11-16T22:46:39.849Z,7.80
2017-11-16T22:49:07.944Z,7.80
2017-11-16T22:51:36.024Z,7.80
2017-11-16T22:54:04.123Z,7.80
2017-11-16T22:56:32.996Z,7.80
2017-11-16T22:59:01.102Z,7.80
2017-11-16T23:01:29.259Z,7.70
2017-11-16T23:03:57.340Z,7.80
2017-11-16T23:06:26.180Z,7.80
2017-11-16T23:08:54.269Z,7.80
2017-11-16T23:11:22.385Z,7.80
2017-11-16T23:13:51.243Z,7.70
2017-11-16T23:16:19.337Z,7.70
2017-11-16T23:18:47.429Z,7.70
2017-11-16T23:21:15.521Z,7.80
2017-11-16T23:23:43.603Z,7.80
2017-11-16T23:26:11.904Z,7.80
2017-11-16T23:28:40.076Z,7.80
2017-11-16T23:31:08.177Z,7.80
2017-11-16T23:33:37.046Z,7.90
2017-11-16T23:36:05.157Z,7.80
2017-11-16T23:38:33.252Z,7.80
2017-11-16T23:41:01.354Z,7.80
2017-11-16T23:43:29.483Z,7.80
2017-11-16T23:45:57.569Z,7.80
2017-11-16T23:48:25.652Z,7.90
2017-11-16T23:50:53.760Z,7.90
2017-11-16T23:53:21.852Z,7.90
2017-11-16T23:55:50.836Z,7.80
2017-11-16T23:58:19.704Z,7.90
